sensor_id;sensor_type;location;lat;lon;timestamp;temperature;humidity
2062;DHT22;11070;51.336;12.340;2024-02-23T00:01:47;12.00;99.90
2062;DHT22;11070;51.336;12.340;2024-02-23T00:04:13;12.00;99.90
2062;DHT22;11070;51.336;12.340;2024-02-23T00:06:39;12.00;99.90
2062;DHT22;11070;51.336;12.340;2024-02-23T00:09:05;12.20;99.90
2062;DHT22;11070;51.336;12.340;2024-02-23T00:11:31;12.20;99.90
2062;DHT22;11070;51.336;12.340;2024-02-23T00:13:59;12.20;99.90
2062;DHT22;11070;51.336;12.340;2024-02-23T00:16:25;12.30;99.90
2062;DHT22;11070;51.336;12.340;2024-02-23T00:18:51;12.40;99.90
2062;DHT22;11070;51.336;12.340;2024-02-23T00:21:17;12.40;99.90
2062;DHT22;11070;51.336;12.340;2024-02-23T00:23:43;12.30;99.90
2062;DHT22;11070;51.336;12.340;2024-02-23T00:26:08;12.30;99.90
2062;DHT22;11070;51.336;12.340;2024-02-23T00:28:34;12.30;99.90
2062;DHT22;11070;51.336;12.340;2024-02-23T00:31:00;12.20;99.90
2062;DHT22;11070;51.336;12.340;2024-02-23T00:33:26;12.20;99.90
2062;DHT22;11070;51.336;12.340;2024-02-23T00:35:51;12.10;99.90
2062;DHT22;11070;51.336;12.340;2024-02-23T00:38:17;12.10;99.90
2062;DHT22;11070;51.336;12.340;2024-02-23T00:40:43;12.10;99.90
2062;DHT22;11070;51.336;12.340;2024-02-23T00:43:08;12.10;99.90
2062;DHT22;11070;51.336;12.340;2024-02-23T00:45:34;12.00;99.90
2062;DHT22;11070;51.336;12.340;2024-02-23T00:47:59;12.00;99.90
2062;DHT22;11070;51.336;12.340;2024-02-23T00:50:25;11.90;99.90
2062;DHT22;11070;51.336;12.340;2024-02-23T00:52:53;11.90;99.90
2062;DHT22;11070;51.336;12.340;2024-02-23T00:55:19;11.80;99.90
2062;DHT22;11070;51.336;12.340;2024-02-23T00:57:44;11.80;99.90
2062;DHT22;11070;51.336;12.340;2024-02-23T01:00:11;11.80;99.90
2062;DHT22;11070;51.336;12.340;2024-02-23T01:02:38;11.80;99.90
2062;DHT22;11070;51.336;12.340;2024-02-23T01:05:04;11.80;99.90
2062;DHT22;11070;51.336;12.340;2024-02-23T01:07:30;11.80;99.90
2062;DHT22;11070;51.336;12.340;2024-02-23T01:09:56;11.80;99.90
2062;DHT22;11070;51.336;12.340;2024-02-23T01:12:22;11.80;99.90
2062;DHT22;11070;51.336;12.340;2024-02-23T01:14:47;11.70;99.90
2062;DHT22;11070;51.336;12.340;2024-02-23T01:17:14;11.70;99.90
2062;DHT22;11070;51.336;12.340;2024-02-23T01:19:41;11.70;99.90
2062;DHT22;11070;51.336;12.340;2024-02-23T01:22:08;11.70;99.90
2062;DHT22;11070;51.336;12.340;2024-02-23T01:24:33;11.70;99.90
2062;DHT22;11070;51.336;12.340;2024-02-23T01:26:59;11.70;99.90
2062;DHT22;11070;51.336;12.340;2024-02-23T01:29:25;11.70;99.90
2062;DHT22;11070;51.336;12.340;2024-02-23T01:31:51;11.70;99.90
2062;DHT22;11070;51.336;12.340;2024-02-23T01:34:22;11.60;99.90
2062;DHT22;11070;51.336;12.340;2024-02-23T01:36:48;11.60;99.90
2062;DHT22;11070;51.336;12.340;2024-02-23T01:39:14;11.50;99.90
2062;DHT22;11070;51.336;12.340;2024-02-23T01:41:39;11.40;99.90
2062;DHT22;11070;51.336;12.340;2024-02-23T01:44:05;11.30;99.90
2062;DHT22;11070;51.336;12.340;2024-02-23T01:46:32;11.20;99.90
2062;DHT22;11070;51.336;12.340;2024-02-23T01:48:58;11.10;99.90
2062;DHT22;11070;51.336;12.340;2024-02-23T01:51:24;11.00;99.90
2062;DHT22;11070;51.336;12.340;2024-02-23T01:53:51;10.90;99.90
2062;DHT22;11070;51.336;12.340;2024-02-23T01:56:17;10.80;99.90
2062;DHT22;11070;51.336;12.340;2024-02-23T01:58:43;10.80;99.90
2062;DHT22;11070;51.336;12.340;2024-02-23T02:01:12;10.80;99.90
2062;DHT22;11070;51.336;12.340;2024-02-23T02:03:38;10.70;99.90
2062;DHT22;11070;51.336;12.340;2024-02-23T02:06:09;10.70;99.90
2062;DHT22;11070;51.336;12.340;2024-02-23T02:08:35;10.80;99.90
2062;DHT22;11070;51.336;12.340;2024-02-23T02:11:01;10.80;99.90
2062;DHT22;11070;51.336;12.340;2024-02-23T02:13:30;10.80;99.90
2062;DHT22;11070;51.336;12.340;2024-02-23T02:15:57;10.80;99.90
2062;DHT22;11070;51.336;12.340;2024-02-23T02:18:23;10.80;99.90
2062;DHT22;11070;51.336;12.340;2024-02-23T02:20:54;10.70;99.90
2062;DHT22;11070;51.336;12.340;2024-02-23T02:23:20;10.70;99.90
2062;DHT22;11070;51.336;12.340;2024-02-23T02:25:55;10.60;99.90
2062;DHT22;11070;51.336;12.340;2024-02-23T02:28:22;10.40;99.90
2062;DHT22;11070;51.336;12.340;2024-02-23T02:30:49;10.30;99.90
2062;DHT22;11070;51.336;12.340;2024-02-23T02:33:15;10.20;99.90
2062;DHT22;11070;51.336;12.340;2024-02-23T02:35:40;10.10;99.90
2062;DHT22;11070;51.336;12.340;2024-02-23T02:38:06;10.00;99.90
2062;DHT22;11070;51.336;12.340;2024-02-23T02:40:32;9.90;99.90
2062;DHT22;11070;51.336;12.340;2024-02-23T02:42:58;9.90;99.90
2062;DHT22;11070;51.336;12.340;2024-02-23T02:45:23;9.90;99.90
2062;DHT22;11070;51.336;12.340;2024-02-23T02:47:49;9.80;99.90
2062;DHT22;11070;51.336;12.340;2024-02-23T02:50:15;9.80;99.90
2062;DHT22;11070;51.336;12.340;2024-02-23T02:52:42;9.70;99.90
2062;DHT22;11070;51.336;12.340;2024-02-23T02:55:08;9.70;99.90
2062;DHT22;11070;51.336;12.340;2024-02-23T02:57:34;9.70;99.90
2062;DHT22;11070;51.336;12.340;2024-02-23T03:00:02;9.70;99.90
2062;DHT22;11070;51.336;12.340;2024-02-23T03:02:31;9.60;99.90
2062;DHT22;11070;51.336;12.340;2024-02-23T03:04:56;9.60;99.90
2062;DHT22;11070;51.336;12.340;2024-02-23T03:07:22;9.70;99.90
2062;DHT22;11070;51.336;12.340;2024-02-23T03:09:48;9.70;99.90
2062;DHT22;11070;51.336;12.340;2024-02-23T03:12:16;9.70;99.90
2062;DHT22;11070;51.336;12.340;2024-02-23T03:14:42;9.70;99.90
2062;DHT22;11070;51.336;12.340;2024-02-23T03:17:07;9.70;99.90
2062;DHT22;11070;51.336;12.340;2024-02-23T03:19:35;9.70;99.90
2062;DHT22;11070;51.336;12.340;2024-02-23T03:22:00;9.60;99.90
2062;DHT22;11070;51.336;12.340;2024-02-23T03:24:26;9.50;99.90
2062;DHT22;11070;51.336;12.340;2024-02-23T03:26:52;9.40;99.90
2062;DHT22;11070;51.336;12.340;2024-02-23T03:29:17;9.30;99.90
2062;DHT22;11070;51.336;12.340;2024-02-23T03:31:43;9.30;99.90
2062;DHT22;11070;51.336;12.340;2024-02-23T03:34:09;9.10;99.90
2062;DHT22;11070;51.336;12.340;2024-02-23T03:36:36;9.00;99.90
2062;DHT22;11070;51.336;12.340;2024-02-23T03:39:01;8.90;99.90
2062;DHT22;11070;51.336;12.340;2024-02-23T03:41:27;8.80;99.90
2062;DHT22;11070;51.336;12.340;2024-02-23T03:43:53;8.70;99.90
2062;DHT22;11070;51.336;12.340;2024-02-23T03:46:18;8.80;99.90
2062;DHT22;11070;51.336;12.340;2024-02-23T03:48:45;8.40;99.90
2062;DHT22;11070;51.336;12.340;2024-02-23T03:51:11;8.30;99.90
2062;DHT22;11070;51.336;12.340;2024-02-23T03:53:36;8.20;99.90
2062;DHT22;11070;51.336;12.340;2024-02-23T03:56:02;8.20;99.90
2062;DHT22;11070;51.336;12.340;2024-02-23T03:58:28;8.20;99.90
2062;DHT22;11070;51.336;12.340;2024-02-23T04:00:54;8.10;99.90
2062;DHT22;11070;51.336;12.340;2024-02-23T04:03:20;8.10;99.90
2062;DHT22;11070;51.336;12.340;2024-02-23T04:05:45;8.10;99.90
2062;DHT22;11070;51.336;12.340;2024-02-23T04:08:11;8.00;99.90
2062;DHT22;11070;51.336;12.340;2024-02-23T04:10:37;8.00;99.90
2062;DHT22;11070;51.336;12.340;2024-02-23T04:13:03;8.00;99.90
2062;DHT22;11070;51.336;12.340;2024-02-23T04:15:28;8.00;99.90
2062;DHT22;11070;51.336;12.340;2024-02-23T04:17:54;7.90;99.90
2062;DHT22;11070;51.336;12.340;2024-02-23T04:20:20;7.90;99.90
2062;DHT22;11070;51.336;12.340;2024-02-23T04:22:45;7.90;99.90
2062;DHT22;11070;51.336;12.340;2024-02-23T04:25:11;7.80;99.90
2062;DHT22;11070;51.336;12.340;2024-02-23T04:27:37;7.80;99.90
2062;DHT22;11070;51.336;12.340;2024-02-23T04:30:04;7.70;99.90
2062;DHT22;11070;51.336;12.340;2024-02-23T04:32:30;7.70;99.90
2062;DHT22;11070;51.336;12.340;2024-02-23T04:34:55;7.70;99.90
2062;DHT22;11070;51.336;12.340;2024-02-23T04:37:21;7.60;99.90
2062;DHT22;11070;51.336;12.340;2024-02-23T04:39:47;7.60;99.90
2062;DHT22;11070;51.336;12.340;2024-02-23T04:42:13;7.70;99.90
2062;DHT22;11070;51.336;12.340;2024-02-23T04:44:40;7.60;99.90
2062;DHT22;11070;51.336;12.340;2024-02-23T04:47:06;7.60;99.90
2062;DHT22;11070;51.336;12.340;2024-02-23T04:49:32;7.60;99.90
2062;DHT22;11070;51.336;12.340;2024-02-23T04:51:57;7.50;99.90
2062;DHT22;11070;51.336;12.340;2024-02-23T04:54:23;7.50;99.90
2062;DHT22;11070;51.336;12.340;2024-02-23T04:56:49;7.50;99.90
2062;DHT22;11070;51.336;12.340;2024-02-23T04:59:15;7.50;99.90
2062;DHT22;11070;51.336;12.340;2024-02-23T05:01:41;7.50;99.90
2062;DHT22;11070;51.336;12.340;2024-02-23T05:04:08;7.50;99.90
2062;DHT22;11070;51.336;12.340;2024-02-23T05:06:33;7.50;99.90
2062;DHT22;11070;51.336;12.340;2024-02-23T05:08:59;7.50;99.90
2062;DHT22;11070;51.336;12.340;2024-02-23T05:11:25;7.50;99.90
2062;DHT22;11070;51.336;12.340;2024-02-23T05:13:50;7.50;99.90
2062;DHT22;11070;51.336;12.340;2024-02-23T05:16:16;7.50;99.90
2062;DHT22;11070;51.336;12.340;2024-02-23T05:18:43;7.50;99.90
2062;DHT22;11070;51.336;12.340;2024-02-23T05:21:09;7.50;99.90
2062;DHT22;11070;51.336;12.340;2024-02-23T05:23:35;7.50;99.90
2062;DHT22;11070;51.336;12.340;2024-02-23T05:26:01;7.50;99.90
2062;DHT22;11070;51.336;12.340;2024-02-23T05:28:27;7.60;99.90
2062;DHT22;11070;51.336;12.340;2024-02-23T05:30:54;7.60;99.90
2062;DHT22;11070;51.336;12.340;2024-02-23T05:33:20;7.60;99.90
2062;DHT22;11070;51.336;12.340;2024-02-23T05:35:48;7.60;99.90
2062;DHT22;11070;51.336;12.340;2024-02-23T05:38:17;7.50;99.90
2062;DHT22;11070;51.336;12.340;2024-02-23T05:40:43;7.50;99.90
2062;DHT22;11070;51.336;12.340;2024-02-23T05:43:09;7.50;99.90
2062;DHT22;11070;51.336;12.340;2024-02-23T05:45:34;7.50;99.90
2062;DHT22;11070;51.336;12.340;2024-02-23T05:48:00;7.50;99.90
2062;DHT22;11070;51.336;12.340;2024-02-23T05:50:26;7.40;99.90
2062;DHT22;11070;51.336;12.340;2024-02-23T05:52:52;7.40;99.90
2062;DHT22;11070;51.336;12.340;2024-02-23T05:55:18;7.30;99.90
2062;DHT22;11070;51.336;12.340;2024-02-23T05:57:44;7.30;99.90
2062;DHT22;11070;51.336;12.340;2024-02-23T06:00:10;7.10;99.90
2062;DHT22;11070;51.336;12.340;2024-02-23T06:02:37;7.10;99.90
2062;DHT22;11070;51.336;12.340;2024-02-23T06:05:03;7.10;99.90
2062;DHT22;11070;51.336;12.340;2024-02-23T06:07:29;7.10;99.90
2062;DHT22;11070;51.336;12.340;2024-02-23T06:09:58;7.00;99.90
2062;DHT22;11070;51.336;12.340;2024-02-23T06:12:24;7.00;99.90
2062;DHT22;11070;51.336;12.340;2024-02-23T06:14:51;6.90;99.90
2062;DHT22;11070;51.336;12.340;2024-02-23T06:17:17;6.90;99.90
2062;DHT22;11070;51.336;12.340;2024-02-23T06:19:43;6.90;99.90
2062;DHT22;11070;51.336;12.340;2024-02-23T06:22:09;6.90;99.90
2062;DHT22;11070;51.336;12.340;2024-02-23T06:24:36;6.80;99.90
2062;DHT22;11070;51.336;12.340;2024-02-23T06:27:02;6.80;99.90
2062;DHT22;11070;51.336;12.340;2024-02-23T06:29:29;6.80;99.90
2062;DHT22;11070;51.336;12.340;2024-02-23T06:31:55;6.90;99.90
2062;DHT22;11070;51.336;12.340;2024-02-23T06:34:21;6.90;99.90
2062;DHT22;11070;51.336;12.340;2024-02-23T06:36:47;6.90;99.90
2062;DHT22;11070;51.336;12.340;2024-02-23T06:39:13;6.90;99.90
2062;DHT22;11070;51.336;12.340;2024-02-23T06:41:39;6.90;99.90
2062;DHT22;11070;51.336;12.340;2024-02-23T06:44:05;6.90;99.90
2062;DHT22;11070;51.336;12.340;2024-02-23T06:46:30;6.90;99.90
2062;DHT22;11070;51.336;12.340;2024-02-23T06:48:56;6.90;99.90
2062;DHT22;11070;51.336;12.340;2024-02-23T06:51:22;6.90;99.90
2062;DHT22;11070;51.336;12.340;2024-02-23T06:53:47;6.90;99.90
2062;DHT22;11070;51.336;12.340;2024-02-23T06:56:13;6.90;99.90
2062;DHT22;11070;51.336;12.340;2024-02-23T06:58:39;6.90;99.90
2062;DHT22;11070;51.336;12.340;2024-02-23T07:01:05;6.90;99.90
2062;DHT22;11070;51.336;12.340;2024-02-23T07:03:35;6.90;99.90
2062;DHT22;11070;51.336;12.340;2024-02-23T07:06:00;6.90;99.90
2062;DHT22;11070;51.336;12.340;2024-02-23T07:08:26;6.90;99.90
2062;DHT22;11070;51.336;12.340;2024-02-23T07:10:52;6.90;99.90
2062;DHT22;11070;51.336;12.340;2024-02-23T07:13:17;6.90;99.90
2062;DHT22;11070;51.336;12.340;2024-02-23T07:15:44;6.90;99.90
2062;DHT22;11070;51.336;12.340;2024-02-23T07:18:10;6.90;99.90
2062;DHT22;11070;51.336;12.340;2024-02-23T07:20:36;6.90;99.90
2062;DHT22;11070;51.336;12.340;2024-02-23T07:23:02;6.90;99.90
2062;DHT22;11070;51.336;12.340;2024-02-23T07:25:27;7.00;99.90
2062;DHT22;11070;51.336;12.340;2024-02-23T07:27:53;7.00;99.90
2062;DHT22;11070;51.336;12.340;2024-02-23T07:30:19;7.00;99.90
2062;DHT22;11070;51.336;12.340;2024-02-23T07:32:45;6.90;99.90
2062;DHT22;11070;51.336;12.340;2024-02-23T07:35:12;6.90;99.90
2062;DHT22;11070;51.336;12.340;2024-02-23T07:37:38;6.90;99.90
2062;DHT22;11070;51.336;12.340;2024-02-23T07:40:04;6.90;99.90
2062;DHT22;11070;51.336;12.340;2024-02-23T07:42:33;6.90;99.90
2062;DHT22;11070;51.336;12.340;2024-02-23T07:45:02;7.00;99.90
2062;DHT22;11070;51.336;12.340;2024-02-23T07:47:30;6.90;99.90
2062;DHT22;11070;51.336;12.340;2024-02-23T07:49:55;6.90;99.90
2062;DHT22;11070;51.336;12.340;2024-02-23T07:52:21;6.90;99.90
2062;DHT22;11070;51.336;12.340;2024-02-23T07:54:49;6.90;99.90
2062;DHT22;11070;51.336;12.340;2024-02-23T07:57:17;6.90;99.90
2062;DHT22;11070;51.336;12.340;2024-02-23T07:59:43;6.90;99.90
2062;DHT22;11070;51.336;12.340;2024-02-23T08:02:09;6.90;99.90
2062;DHT22;11070;51.336;12.340;2024-02-23T08:04:34;6.90;99.90
2062;DHT22;11070;51.336;12.340;2024-02-23T08:07:00;6.90;99.90
2062;DHT22;11070;51.336;12.340;2024-02-23T08:09:25;7.00;99.90
2062;DHT22;11070;51.336;12.340;2024-02-23T08:11:51;7.00;99.90
2062;DHT22;11070;51.336;12.340;2024-02-23T08:14:17;7.00;99.90
2062;DHT22;11070;51.336;12.340;2024-02-23T08:16:42;7.10;99.90
2062;DHT22;11070;51.336;12.340;2024-02-23T08:19:08;7.10;99.90
2062;DHT22;11070;51.336;12.340;2024-02-23T08:21:34;7.10;99.90
2062;DHT22;11070;51.336;12.340;2024-02-23T08:23:59;7.10;99.90
2062;DHT22;11070;51.336;12.340;2024-02-23T08:26:25;7.20;99.90
2062;DHT22;11070;51.336;12.340;2024-02-23T08:28:51;7.30;99.90
2062;DHT22;11070;51.336;12.340;2024-02-23T08:31:16;7.30;99.90
2062;DHT22;11070;51.336;12.340;2024-02-23T08:33:42;7.30;99.90
2062;DHT22;11070;51.336;12.340;2024-02-23T08:36:08;7.40;99.90
2062;DHT22;11070;51.336;12.340;2024-02-23T08:38:33;7.40;99.90
2062;DHT22;11070;51.336;12.340;2024-02-23T08:40:59;7.50;99.90
2062;DHT22;11070;51.336;12.340;2024-02-23T08:43:25;7.50;99.90
2062;DHT22;11070;51.336;12.340;2024-02-23T08:45:50;7.60;99.90
2062;DHT22;11070;51.336;12.340;2024-02-23T08:48:17;7.70;99.90
2062;DHT22;11070;51.336;12.340;2024-02-23T08:50:43;7.70;99.90
2062;DHT22;11070;51.336;12.340;2024-02-23T08:53:09;7.70;99.90
2062;DHT22;11070;51.336;12.340;2024-02-23T08:55:34;7.70;99.90
2062;DHT22;11070;51.336;12.340;2024-02-23T08:58:00;7.70;99.90
2062;DHT22;11070;51.336;12.340;2024-02-23T09:00:26;7.80;99.90
2062;DHT22;11070;51.336;12.340;2024-02-23T09:02:51;7.80;99.90
2062;DHT22;11070;51.336;12.340;2024-02-23T09:05:17;7.90;99.90
2062;DHT22;11070;51.336;12.340;2024-02-23T09:07:43;8.00;99.90
2062;DHT22;11070;51.336;12.340;2024-02-23T09:10:08;8.10;99.90
2062;DHT22;11070;51.336;12.340;2024-02-23T09:12:34;8.20;99.90
2062;DHT22;11070;51.336;12.340;2024-02-23T09:15:00;8.20;99.90
2062;DHT22;11070;51.336;12.340;2024-02-23T09:17:25;8.40;98.90
2062;DHT22;11070;51.336;12.340;2024-02-23T09:19:51;8.60;97.40
2062;DHT22;11070;51.336;12.340;2024-02-23T09:22:17;8.60;96.20
2062;DHT22;11070;51.336;12.340;2024-02-23T09:24:43;8.50;97.50
2062;DHT22;11070;51.336;12.340;2024-02-23T09:27:08;8.40;99.00
2062;DHT22;11070;51.336;12.340;2024-02-23T09:29:34;8.20;99.90
2062;DHT22;11070;51.336;12.340;2024-02-23T09:32:00;8.30;99.90
2062;DHT22;11070;51.336;12.340;2024-02-23T09:34:26;8.30;99.90
2062;DHT22;11070;51.336;12.340;2024-02-23T09:36:52;8.30;99.90
2062;DHT22;11070;51.336;12.340;2024-02-23T09:39:18;8.40;99.90
2062;DHT22;11070;51.336;12.340;2024-02-23T09:41:43;8.60;99.90
2062;DHT22;11070;51.336;12.340;2024-02-23T09:44:09;8.40;99.70
2062;DHT22;11070;51.336;12.340;2024-02-23T09:46:40;8.40;99.90
2062;DHT22;11070;51.336;12.340;2024-02-23T09:49:05;8.40;98.90
2062;DHT22;11070;51.336;12.340;2024-02-23T09:51:33;8.40;98.20
2062;DHT22;11070;51.336;12.340;2024-02-23T09:54:01;8.50;96.60
2062;DHT22;11070;51.336;12.340;2024-02-23T09:56:28;8.50;95.40
2062;DHT22;11070;51.336;12.340;2024-02-23T09:58:57;8.40;93.00
2062;DHT22;11070;51.336;12.340;2024-02-23T10:01:28;8.50;94.10
2062;DHT22;11070;51.336;12.340;2024-02-23T10:03:57;8.60;93.50
2062;DHT22;11070;51.336;12.340;2024-02-23T10:06:26;8.40;91.40
2062;DHT22;11070;51.336;12.340;2024-02-23T10:08:53;8.40;92.00
2062;DHT22;11070;51.336;12.340;2024-02-23T10:11:22;8.40;91.90
2062;DHT22;11070;51.336;12.340;2024-02-23T10:13:48;8.50;91.90
2062;DHT22;11070;51.336;12.340;2024-02-23T10:16:18;8.70;92.20
2062;DHT22;11070;51.336;12.340;2024-02-23T10:18:46;8.80;90.50
2062;DHT22;11070;51.336;12.340;2024-02-23T10:21:14;8.70;90.70
2062;DHT22;11070;51.336;12.340;2024-02-23T10:23:40;8.70;90.10
2062;DHT22;11070;51.336;12.340;2024-02-23T10:26:07;8.90;90.10
2062;DHT22;11070;51.336;12.340;2024-02-23T10:28:34;8.90;90.40
2062;DHT22;11070;51.336;12.340;2024-02-23T10:31:00;8.80;90.70
2062;DHT22;11070;51.336;12.340;2024-02-23T10:33:27;8.90;91.30
2062;DHT22;11070;51.336;12.340;2024-02-23T10:35:56;9.20;90.50
2062;DHT22;11070;51.336;12.340;2024-02-23T10:38:23;9.20;89.10
2062;DHT22;11070;51.336;12.340;2024-02-23T10:40:50;9.30;87.80
2062;DHT22;11070;51.336;12.340;2024-02-23T10:43:20;9.40;87.20
2062;DHT22;11070;51.336;12.340;2024-02-23T10:45:50;9.40;85.10
2062;DHT22;11070;51.336;12.340;2024-02-23T10:48:17;9.30;87.60
2062;DHT22;11070;51.336;12.340;2024-02-23T10:50:43;9.20;87.50
2062;DHT22;11070;51.336;12.340;2024-02-23T10:53:10;9.30;87.70
2062;DHT22;11070;51.336;12.340;2024-02-23T10:55:37;9.30;86.80
2062;DHT22;11070;51.336;12.340;2024-02-23T10:58:09;9.10;85.20
2062;DHT22;11070;51.336;12.340;2024-02-23T11:00:37;8.90;85.70
2062;DHT22;11070;51.336;12.340;2024-02-23T11:03:03;8.90;85.00
2062;DHT22;11070;51.336;12.340;2024-02-23T11:05:31;8.70;86.80
2062;DHT22;11070;51.336;12.340;2024-02-23T11:07:56;8.60;87.10
2062;DHT22;11070;51.336;12.340;2024-02-23T11:10:22;8.60;86.60
2062;DHT22;11070;51.336;12.340;2024-02-23T11:12:59;8.80;87.00
2062;DHT22;11070;51.336;12.340;2024-02-23T11:15:27;8.80;85.60
2062;DHT22;11070;51.336;12.340;2024-02-23T11:17:52;8.60;84.80
2062;DHT22;11070;51.336;12.340;2024-02-23T11:20:18;8.60;84.20
2062;DHT22;11070;51.336;12.340;2024-02-23T11:22:44;8.70;84.30
2062;DHT22;11070;51.336;12.340;2024-02-23T11:25:09;8.80;84.10
2062;DHT22;11070;51.336;12.340;2024-02-23T11:27:40;8.80;83.60
2062;DHT22;11070;51.336;12.340;2024-02-23T11:30:09;8.80;82.20
2062;DHT22;11070;51.336;12.340;2024-02-23T11:32:41;8.70;80.50
2062;DHT22;11070;51.336;12.340;2024-02-23T11:35:10;8.70;82.90
2062;DHT22;11070;51.336;12.340;2024-02-23T11:37:52;8.60;83.80
2062;DHT22;11070;51.336;12.340;2024-02-23T11:40:28;8.60;85.50
2062;DHT22;11070;51.336;12.340;2024-02-23T11:42:55;8.70;85.50
2062;DHT22;11070;51.336;12.340;2024-02-23T11:45:21;8.70;85.70
2062;DHT22;11070;51.336;12.340;2024-02-23T11:47:47;8.80;84.80
2062;DHT22;11070;51.336;12.340;2024-02-23T11:50:13;8.80;85.00
2062;DHT22;11070;51.336;12.340;2024-02-23T11:52:41;8.90;82.90
2062;DHT22;11070;51.336;12.340;2024-02-23T11:55:07;8.90;82.80
2062;DHT22;11070;51.336;12.340;2024-02-23T11:57:38;9.00;81.50
2062;DHT22;11070;51.336;12.340;2024-02-23T12:00:05;9.00;76.50
2062;DHT22;11070;51.336;12.340;2024-02-23T12:02:37;8.80;76.00
2062;DHT22;11070;51.336;12.340;2024-02-23T12:05:03;8.90;77.20
2062;DHT22;11070;51.336;12.340;2024-02-23T12:07:29;8.70;78.60
2062;DHT22;11070;51.336;12.340;2024-02-23T12:09:58;8.70;79.40
2062;DHT22;11070;51.336;12.340;2024-02-23T12:12:27;8.80;80.10
2062;DHT22;11070;51.336;12.340;2024-02-23T12:14:53;8.90;78.50
2062;DHT22;11070;51.336;12.340;2024-02-23T12:17:19;8.90;79.90
2062;DHT22;11070;51.336;12.340;2024-02-23T12:19:45;8.90;79.90
2062;DHT22;11070;51.336;12.340;2024-02-23T12:22:11;8.80;79.80
2062;DHT22;11070;51.336;12.340;2024-02-23T12:24:41;8.90;79.60
2062;DHT22;11070;51.336;12.340;2024-02-23T12:27:07;9.00;79.70
2062;DHT22;11070;51.336;12.340;2024-02-23T12:29:32;8.90;80.40
2062;DHT22;11070;51.336;12.340;2024-02-23T12:32:05;8.90;79.80
2062;DHT22;11070;51.336;12.340;2024-02-23T12:34:31;9.00;80.60
2062;DHT22;11070;51.336;12.340;2024-02-23T12:36:56;9.10;80.80
2062;DHT22;11070;51.336;12.340;2024-02-23T12:39:22;9.10;80.50
2062;DHT22;11070;51.336;12.340;2024-02-23T12:41:48;8.90;79.20
2062;DHT22;11070;51.336;12.340;2024-02-23T12:44:14;8.80;79.80
2062;DHT22;11070;51.336;12.340;2024-02-23T12:46:40;8.80;80.00
2062;DHT22;11070;51.336;12.340;2024-02-23T12:49:05;8.70;78.90
2062;DHT22;11070;51.336;12.340;2024-02-23T12:51:31;8.70;80.70
2062;DHT22;11070;51.336;12.340;2024-02-23T12:53:57;8.70;80.80
2062;DHT22;11070;51.336;12.340;2024-02-23T12:56:23;8.80;79.00
2062;DHT22;11070;51.336;12.340;2024-02-23T12:58:50;8.70;79.60
2062;DHT22;11070;51.336;12.340;2024-02-23T13:01:16;8.60;78.80
2062;DHT22;11070;51.336;12.340;2024-02-23T13:03:41;8.60;79.10
2062;DHT22;11070;51.336;12.340;2024-02-23T13:06:07;8.70;79.40
2062;DHT22;11070;51.336;12.340;2024-02-23T13:08:33;8.80;79.70
2062;DHT22;11070;51.336;12.340;2024-02-23T13:11:00;8.90;79.70
2062;DHT22;11070;51.336;12.340;2024-02-23T13:13:26;8.70;80.10
2062;DHT22;11070;51.336;12.340;2024-02-23T13:15:52;8.70;81.00
2062;DHT22;11070;51.336;12.340;2024-02-23T13:18:19;8.70;82.10
2062;DHT22;11070;51.336;12.340;2024-02-23T13:20:45;8.80;82.90
2062;DHT22;11070;51.336;12.340;2024-02-23T13:23:11;8.80;83.80
2062;DHT22;11070;51.336;12.340;2024-02-23T13:25:38;8.80;83.60
2062;DHT22;11070;51.336;12.340;2024-02-23T13:28:05;8.70;84.20
2062;DHT22;11070;51.336;12.340;2024-02-23T13:30:35;8.70;84.40
2062;DHT22;11070;51.336;12.340;2024-02-23T13:33:01;8.60;86.70
2062;DHT22;11070;51.336;12.340;2024-02-23T13:35:27;8.60;87.30
2062;DHT22;11070;51.336;12.340;2024-02-23T13:37:53;8.70;88.90
2062;DHT22;11070;51.336;12.340;2024-02-23T13:40:19;8.70;89.30
2062;DHT22;11070;51.336;12.340;2024-02-23T13:42:44;8.80;89.40
2062;DHT22;11070;51.336;12.340;2024-02-23T13:45:19;8.90;88.50
2062;DHT22;11070;51.336;12.340;2024-02-23T13:48:01;8.70;88.00
2062;DHT22;11070;51.336;12.340;2024-02-23T13:50:28;8.70;87.40
2062;DHT22;11070;51.336;12.340;2024-02-23T13:52:54;8.70;86.40
2062;DHT22;11070;51.336;12.340;2024-02-23T13:55:19;8.60;84.50
2062;DHT22;11070;51.336;12.340;2024-02-23T13:57:48;8.60;83.80
2062;DHT22;11070;51.336;12.340;2024-02-23T14:00:16;8.60;83.80
2062;DHT22;11070;51.336;12.340;2024-02-23T14:02:41;8.60;84.90
2062;DHT22;11070;51.336;12.340;2024-02-23T14:05:07;8.60;85.40
2062;DHT22;11070;51.336;12.340;2024-02-23T14:07:34;8.60;86.90
2062;DHT22;11070;51.336;12.340;2024-02-23T14:10:00;8.60;87.90
2062;DHT22;11070;51.336;12.340;2024-02-23T14:12:26;8.50;87.80
2062;DHT22;11070;51.336;12.340;2024-02-23T14:14:51;8.50;89.10
2062;DHT22;11070;51.336;12.340;2024-02-23T14:17:17;8.60;90.20
2062;DHT22;11070;51.336;12.340;2024-02-23T14:19:43;8.50;90.70
2062;DHT22;11070;51.336;12.340;2024-02-23T14:22:08;8.60;91.10
2062;DHT22;11070;51.336;12.340;2024-02-23T14:24:34;8.60;91.40
2062;DHT22;11070;51.336;12.340;2024-02-23T14:27:00;8.60;90.60
2062;DHT22;11070;51.336;12.340;2024-02-23T14:29:26;8.60;90.40
2062;DHT22;11070;51.336;12.340;2024-02-23T14:31:52;8.60;90.70
2062;DHT22;11070;51.336;12.340;2024-02-23T14:34:18;8.60;90.30
2062;DHT22;11070;51.336;12.340;2024-02-23T14:36:45;8.50;90.00
2062;DHT22;11070;51.336;12.340;2024-02-23T14:39:11;8.50;91.00
2062;DHT22;11070;51.336;12.340;2024-02-23T14:41:38;8.50;90.30
2062;DHT22;11070;51.336;12.340;2024-02-23T14:44:04;8.50;90.10
2062;DHT22;11070;51.336;12.340;2024-02-23T14:46:30;8.40;90.20
2062;DHT22;11070;51.336;12.340;2024-02-23T14:48:55;8.40;90.40
2062;DHT22;11070;51.336;12.340;2024-02-23T14:51:21;8.40;91.00
2062;DHT22;11070;51.336;12.340;2024-02-23T14:53:47;8.40;91.70
2062;DHT22;11070;51.336;12.340;2024-02-23T14:56:12;8.40;92.00
2062;DHT22;11070;51.336;12.340;2024-02-23T14:58:38;8.40;92.90
2062;DHT22;11070;51.336;12.340;2024-02-23T15:01:04;8.40;93.40
2062;DHT22;11070;51.336;12.340;2024-02-23T15:03:30;8.40;93.30
2062;DHT22;11070;51.336;12.340;2024-02-23T15:05:58;8.30;92.20
2062;DHT22;11070;51.336;12.340;2024-02-23T15:08:24;8.30;91.20
2062;DHT22;11070;51.336;12.340;2024-02-23T15:10:50;8.30;91.10
2062;DHT22;11070;51.336;12.340;2024-02-23T15:13:17;8.30;91.00
2062;DHT22;11070;51.336;12.340;2024-02-23T15:15:43;8.20;90.90
2062;DHT22;11070;51.336;12.340;2024-02-23T15:18:08;8.20;90.60
2062;DHT22;11070;51.336;12.340;2024-02-23T15:20:34;8.20;90.50
2062;DHT22;11070;51.336;12.340;2024-02-23T15:23:00;8.20;90.60
2062;DHT22;11070;51.336;12.340;2024-02-23T15:25:27;8.20;91.40
2062;DHT22;11070;51.336;12.340;2024-02-23T15:27:53;8.10;90.80
2062;DHT22;11070;51.336;12.340;2024-02-23T15:30:24;8.10;91.90
2062;DHT22;11070;51.336;12.340;2024-02-23T15:32:49;8.00;92.10
2062;DHT22;11070;51.336;12.340;2024-02-23T15:35:15;8.00;91.90
2062;DHT22;11070;51.336;12.340;2024-02-23T15:37:41;8.00;92.20